Time;durP1;ratioP1;P1;durP2;ratioP2;P2;SDS_P1;SDS_P2;PMS_P1;PMS_P2;Temp;Humidity;BMP_temperature;BMP_pressure;BME280_temperature;BME280_humidity;BME280_pressure;Samples;Min_cycle;Max_cycle;Signal;HPM_P1;HPM_P2
2023/02/04 00:01:24;;;;;;;8.23;3.05;;;8.30;99.90;;;;;;5061930;28;20028;-89
2023/02/04 00:03:51;;;;;;;8.57;3.13;;;8.30;99.90;;;;;;5062987;28;20538;-92
2023/02/04 00:06:16;;;;;;;13.82;4.68;;;8.40;99.90;;;;;;5059919;28;20052;-92
2023/02/04 00:08:42;;;;;;;9.57;3.13;;;8.40;99.90;;;;;;5062535;28;20025;-89
2023/02/04 00:11:08;;;;;;;6.05;2.83;;;8.40;99.90;;;;;;5061685;28;20029;-89
2023/02/04 00:13:33;;;;;;;7.85;3.05;;;8.40;99.90;;;;;;5063410;28;20025;-91
2023/02/04 00:15:59;;;;;;;11.18;3.03;;;8.50;99.90;;;;;;5055351;28;20033;-92
2023/02/04 00:18:24;;;;;;;5.25;2.50;;;8.50;99.90;;;;;;5056722;28;20507;-90
2023/02/04 00:20:50;;;;;;;7.00;2.83;;;8.50;99.90;;;;;;5055047;28;20059;-86
2023/02/04 00:23:16;;;;;;;5.88;2.75;;;8.50;99.90;;;;;;5060463;28;20535;-90
2023/02/04 00:25:41;;;;;;;9.00;2.90;;;8.50;99.90;;;;;;5055029;28;20025;-92
2023/02/04 00:28:07;;;;;;;9.50;4.18;;;8.40;99.90;;;;;;5055684;28;20071;-92
2023/02/04 00:30:33;;;;;;;10.52;3.33;;;8.40;99.90;;;;;;5055475;28;20017;-92
2023/02/04 00:32:58;;;;;;;7.07;2.38;;;8.40;99.90;;;;;;5057740;28;20110;-90
2023/02/04 00:35:24;;;;;;;6.80;2.50;;;8.40;99.90;;;;;;5063541;28;20504;-92
2023/02/04 00:37:50;;;;;;;5.55;2.50;;;8.40;99.90;;;;;;5073799;28;20029;-92
2023/02/04 00:40:16;;;;;;;8.65;2.92;;;8.40;99.90;;;;;;5075315;28;20020;-92
2023/02/04 00:42:42;;;;;;;8.95;2.72;;;8.40;99.90;;;;;;5074915;28;20539;-91
2023/02/04 00:45:09;;;;;;;5.90;2.97;;;8.30;99.90;;;;;;5074569;28;20056;-91
2023/02/04 00:47:35;;;;;;;5.38;2.42;;;8.30;99.90;;;;;;5075534;28;20052;-92
2023/02/04 00:50:00;;;;;;;7.57;3.78;;;8.30;99.90;;;;;;5075960;28;20090;-93
2023/02/04 00:52:26;;;;;;;5.05;2.65;;;8.20;99.90;;;;;;5076162;28;20026;-92
2023/02/04 00:54:52;;;;;;;7.07;2.65;;;8.20;99.90;;;;;;5109211;28;20020;-91
2023/02/04 00:57:18;;;;;;;7.72;3.03;;;8.20;99.90;;;;;;5072862;28;20464;-90
2023/02/04 00:59:44;;;;;;;8.57;3.15;;;8.20;99.90;;;;;;5072909;28;20112;-90
2023/02/04 01:02:09;;;;;;;7.63;3.60;;;8.20;99.90;;;;;;5072545;28;20028;-91
2023/02/04 01:04:35;;;;;;;6.32;3.13;;;8.20;99.90;;;;;;5074181;28;20473;-92
2023/02/04 01:07:01;;;;;;;4.10;2.60;;;8.20;99.90;;;;;;5072263;28;20190;-93
2023/02/04 01:09:26;;;;;;;5.82;2.47;;;8.10;99.90;;;;;;5073180;28;20028;-91
2023/02/04 01:11:52;;;;;;;7.13;2.58;;;8.20;99.90;;;;;;5072629;28;20024;-91
2023/02/04 01:14:17;;;;;;;11.50;3.30;;;8.10;99.90;;;;;;5033147;28;20123;-92
2023/02/04 01:16:44;;;;;;;8.07;2.80;;;8.10;99.90;;;;;;5033548;28;20071;-92
2023/02/04 01:19:10;;;;;;;6.10;2.40;;;8.10;99.90;;;;;;5033376;28;20524;-91
2023/02/04 01:21:36;;;;;;;5.80;2.80;;;8.10;99.90;;;;;;5033008;28;20120;-90
2023/02/04 01:24:02;;;;;;;8.20;2.53;;;8.10;99.90;;;;;;5034274;28;20108;-92
2023/02/04 01:26:28;;;;;;;5.32;2.50;;;8.10;99.90;;;;;;5032796;28;20080;-91
2023/02/04 01:28:53;;;;;;;3.85;2.35;;;8.10;99.90;;;;;;5033103;28;20021;-91
2023/02/04 01:31:19;;;;;;;11.20;3.15;;;8.10;99.90;;;;;;5033147;28;20033;-92
2023/02/04 01:33:45;;;;;;;10.95;2.92;;;8.10;99.90;;;;;;5035039;28;20028;-91
2023/02/04 01:36:11;;;;;;;12.70;3.13;;;8.10;99.90;;;;;;5033116;28;20052;-92
2023/02/04 01:38:37;;;;;;;8.65;3.03;;;8.00;99.90;;;;;;5032449;28;20029;-92
2023/02/04 01:41:04;;;;;;;8.55;3.38;;;8.00;99.90;;;;;;5033542;28;20029;-92
2023/02/04 01:43:30;;;;;;;8.77;3.00;;;8.00;99.90;;;;;;5033044;28;20022;-93
2023/02/04 01:45:56;;;;;;;7.07;3.20;;;8.00;99.90;;;;;;5032448;28;20056;-92
2023/02/04 01:48:22;;;;;;;6.63;3.05;;;8.00;99.90;;;;;;5030655;28;20017;-90
2023/02/04 01:50:50;;;;;;;7.53;2.90;;;8.00;99.90;;;;;;5032996;28;20095;-92
2023/02/04 01:53:20;;;;;;;7.72;3.20;;;8.00;99.90;;;;;;5033066;28;20033;-92
2023/02/04 01:55:47;;;;;;;7.00;3.60;;;8.00;99.90;;;;;;5032036;28;20068;-91
2023/02/04 01:58:14;;;;;;;5.35;3.22;;;8.00;99.90;;;;;;5041005;28;20413;-92
2023/02/04 02:00:40;;;;;;;9.63;3.30;;;8.00;99.90;;;;;;5052292;28;20064;-93
2023/02/04 02:03:10;;;;;;;10.73;3.25;;;7.90;99.90;;;;;;5052294;28;20025;-90
2023/02/04 02:05:48;;;;;;;9.43;3.25;;;7.90;99.90;;;;;;5052922;28;20071;-92
2023/02/04 02:08:15;;;;;;;9.00;2.92;;;7.90;99.90;;;;;;5053676;28;20120;-92
2023/02/04 02:10:44;;;;;;;7.97;3.72;;;7.90;99.90;;;;;;5052489;28;20071;-92
2023/02/04 02:13:14;;;;;;;6.28;3.53;;;7.90;99.90;;;;;;5053168;28;20024;-89
2023/02/04 02:15:40;;;;;;;5.43;3.50;;;7.90;99.90;;;;;;5052029;28;20106;-91
2023/02/04 02:18:06;;;;;;;7.20;3.22;;;7.90;99.90;;;;;;5053794;28;20017;-91
2023/02/04 02:20:32;;;;;;;8.05;3.10;;;7.90;99.90;;;;;;5056115;28;20029;-92
2023/02/04 02:23:10;;;;;;;7.35;3.47;;;7.90;99.90;;;;;;5056079;28;20057;-89
2023/02/04 02:25:36;;;;;;;8.07;3.60;;;7.90;99.90;;;;;;5057023;28;20075;-92
2023/02/04 02:28:05;;;;;;;7.70;3.35;;;7.90;99.90;;;;;;5057121;28;20029;-91
2023/02/04 02:30:31;;;;;;;11.02;3.60;;;7.90;99.90;;;;;;5055126;28;20037;-91
2023/02/04 02:32:57;;;;;;;10.10;4.03;;;7.90;99.90;;;;;;5056672;28;20031;-91
2023/02/04 02:35:23;;;;;;;10.77;3.30;;;7.90;99.90;;;;;;5055277;28;20111;-91
2023/02/04 02:37:48;;;;;;;12.45;3.95;;;7.90;99.90;;;;;;5057162;28;20021;-92
2023/02/04 02:40:14;;;;;;;9.30;3.20;;;7.80;99.90;;;;;;5057177;28;20032;-91
2023/02/04 02:42:42;;;;;;;11.75;3.60;;;7.90;99.90;;;;;;5055577;28;20120;-89
2023/02/04 02:45:21;;;;;;;6.22;3.38;;;7.90;99.90;;;;;;5056377;28;20037;-93
2023/02/04 02:47:47;;;;;;;7.90;2.90;;;7.90;99.90;;;;;;5055189;28;20477;-92
2023/02/04 02:50:18;;;;;;;6.40;2.95;;;7.90;99.90;;;;;;5055466;28;20024;-92
2023/02/04 02:52:44;;;;;;;5.45;3.13;;;7.90;99.90;;;;;;5054649;28;20111;-92
2023/02/04 02:55:16;;;;;;;10.75;3.42;;;7.90;99.90;;;;;;5054848;28;20175;-91
2023/02/04 02:57:43;;;;;;;5.30;3.17;;;7.90;99.90;;;;;;5055395;28;20081;-90
2023/02/04 03:00:13;;;;;;;9.13;3.58;;;7.80;99.90;;;;;;5054780;28;20025;-91
2023/02/04 03:02:39;;;;;;;5.55;2.80;;;7.90;99.90;;;;;;5054735;28;20039;-91
2023/02/04 03:05:05;;;;;;;3.75;2.95;;;7.90;99.90;;;;;;5055133;28;20112;-91
2023/02/04 03:07:31;;;;;;;6.65;2.63;;;7.90;99.90;;;;;;5054637;28;20126;-90
2023/02/04 03:09:57;;;;;;;4.68;2.45;;;7.90;99.90;;;;;;5054592;28;20021;-91
2023/02/04 03:12:23;;;;;;;4.72;2.95;;;7.90;99.90;;;;;;5054467;28;20052;-91
2023/02/04 03:14:48;;;;;;;5.65;2.30;;;7.90;99.90;;;;;;5054608;28;20029;-92
2023/02/04 03:17:14;;;;;;;6.25;2.85;;;7.90;99.90;;;;;;5054122;28;20040;-90
2023/02/04 03:19:41;;;;;;;8.63;2.75;;;7.90;99.90;;;;;;5053812;28;20585;-90
2023/02/04 03:22:07;;;;;;;7.40;3.65;;;7.90;99.90;;;;;;5053772;28;20116;-91
2023/02/04 03:24:35;;;;;;;7.97;3.17;;;7.90;99.90;;;;;;5053864;28;20029;-90
2023/02/04 03:27:00;;;;;;;9.30;3.28;;;7.90;99.90;;;;;;5054111;28;20056;-92
2023/02/04 03:29:26;;;;;;;5.78;2.88;;;7.90;99.90;;;;;;5053340;28;20060;-91
2023/02/04 03:31:54;;;;;;;8.40;3.15;;;7.90;99.90;;;;;;5054333;28;20079;-91
2023/02/04 03:34:20;;;;;;;8.90;3.45;;;7.90;99.90;;;;;;5055935;28;20024;-90
2023/02/04 03:36:46;;;;;;;5.65;2.75;;;7.90;99.90;;;;;;5055186;28;20080;-91
2023/02/04 03:39:12;;;;;;;3.15;2.10;;;7.90;99.90;;;;;;5054600;28;20052;-90
2023/02/04 03:41:37;;;;;;;6.35;2.53;;;7.90;99.90;;;;;;5054800;28;20489;-91
2023/02/04 03:44:03;;;;;;;5.60;2.85;;;7.90;99.90;;;;;;5053469;28;20021;-91
2023/02/04 03:46:29;;;;;;;4.50;2.30;;;7.90;99.90;;;;;;5053904;28;20043;-91
2023/02/04 03:48:55;;;;;;;5.40;2.55;;;7.90;99.90;;;;;;5054037;28;20569;-91
2023/02/04 03:51:20;;;;;;;8.57;3.05;;;7.90;99.90;;;;;;5053469;28;20033;-91
2023/02/04 03:53:46;;;;;;;10.52;2.88;;;7.90;99.90;;;;;;5053349;28;20215;-92
2023/02/04 03:56:12;;;;;;;6.68;3.38;;;7.90;99.90;;;;;;5053413;28;20470;-91
2023/02/04 03:58:37;;;;;;;4.53;2.45;;;7.90;99.90;;;;;;5053652;28;20040;-91
2023/02/04 04:01:03;;;;;;;8.48;3.15;;;7.90;99.90;;;;;;5053384;28;20029;-91
2023/02/04 04:03:29;;;;;;;3.88;2.55;;;7.90;99.90;;;;;;5053666;28;20036;-91
2023/02/04 04:05:54;;;;;;;4.57;3.08;;;7.90;99.90;;;;;;5053560;28;20029;-92
2023/02/04 04:08:20;;;;;;;4.68;3.05;;;7.90;99.90;;;;;;5053731;28;20037;-91
2023/02/04 04:10:45;;;;;;;3.38;2.05;;;7.90;99.90;;;;;;5053982;28;20429;-91
2023/02/04 04:13:11;;;;;;;6.72;2.50;;;7.90;99.90;;;;;;5054135;28;20029;-91
2023/02/04 04:15:36;;;;;;;6.40;2.47;;;7.90;99.90;;;;;;5053957;28;20025;-91
2023/02/04 04:18:03;;;;;;;4.18;2.60;;;7.90;99.90;;;;;;5053647;28;20443;-91
2023/02/04 04:20:29;;;;;;;7.72;2.72;;;7.90;99.90;;;;;;5053269;28;20021;-91
2023/02/04 04:22:55;;;;;;;5.13;2.10;;;7.90;99.90;;;;;;5052632;28;20032;-90
2023/02/04 04:25:20;;;;;;;3.65;1.70;;;7.90;99.90;;;;;;5053536;28;20492;-91
2023/02/04 04:27:46;;;;;;;11.65;3.55;;;7.90;99.90;;;;;;5053250;28;20074;-91
2023/02/04 04:30:11;;;;;;;9.13;3.05;;;7.90;99.90;;;;;;5053369;28;20025;-92
2023/02/04 04:32:37;;;;;;;9.18;2.80;;;7.90;99.90;;;;;;5054364;28;20045;-91
2023/02/04 04:35:03;;;;;;;8.00;2.92;;;7.90;99.90;;;;;;5053551;28;20017;-92
2023/02/04 04:37:29;;;;;;;6.60;2.97;;;7.90;99.90;;;;;;5052634;28;20029;-91
2023/02/04 04:39:54;;;;;;;7.57;2.65;;;7.90;99.90;;;;;;5052280;28;20026;-91
2023/02/04 04:42:20;;;;;;;6.82;3.15;;;7.90;99.90;;;;;;5053143;28;20025;-91
2023/02/04 04:44:46;;;;;;;3.85;2.90;;;8.00;99.90;;;;;;5052320;28;20116;-91
2023/02/04 04:47:11;;;;;;;7.40;2.92;;;7.90;99.90;;;;;;5052450;28;20036;-92
2023/02/04 04:49:37;;;;;;;3.58;2.47;;;7.90;99.90;;;;;;5053245;28;20036;-91
2023/02/04 04:52:03;;;;;;;6.35;2.88;;;7.90;99.90;;;;;;5053108;28;20116;-91
2023/02/04 04:54:28;;;;;;;4.30;2.00;;;7.90;99.90;;;;;;5053659;28;20021;-92
2023/02/04 04:56:54;;;;;;;4.07;2.25;;;8.00;99.90;;;;;;5052754;28;20036;-90
2023/02/04 04:59:20;;;;;;;6.10;2.50;;;8.00;99.90;;;;;;5051998;28;20374;-90
2023/02/04 05:01:45;;;;;;;4.57;2.38;;;8.00;99.90;;;;;;5052200;28;20071;-91
2023/02/04 05:04:11;;;;;;;6.78;2.65;;;8.00;99.90;;;;;;5052221;28;20127;-91
2023/02/04 05:06:37;;;;;;;5.07;2.30;;;8.00;99.90;;;;;;5052421;28;20065;-91
2023/02/04 05:09:03;;;;;;;3.35;1.70;;;8.10;99.90;;;;;;5052900;28;20021;-91
2023/02/04 05:11:29;;;;;;;6.25;2.70;;;8.00;99.90;;;;;;5052476;28;20565;-89
2023/02/04 05:13:55;;;;;;;6.90;2.53;;;8.10;99.90;;;;;;5052640;28;20036;-89
2023/02/04 05:16:21;;;;;;;7.15;1.85;;;8.10;99.90;;;;;;5052421;28;20025;-93
2023/02/04 05:18:46;;;;;;;2.00;1.73;;;8.10;99.90;;;;;;5060865;28;20017;-90
2023/02/04 05:21:12;;;;;;;5.45;1.80;;;8.10;99.90;;;;;;5066101;28;20100;-90
2023/02/04 05:23:38;;;;;;;3.97;1.80;;;8.10;99.90;;;;;;5064803;28;20051;-91
2023/02/04 05:26:03;;;;;;;10.52;2.00;;;8.10;99.90;;;;;;5059310;28;20036;-91
2023/02/04 05:28:29;;;;;;;11.38;1.65;;;8.10;99.90;;;;;;5052093;28;20505;-91
2023/02/04 05:30:55;;;;;;;8.38;1.50;;;8.10;99.90;;;;;;5057818;28;20379;-91
2023/02/04 05:33:20;;;;;;;5.80;1.73;;;8.00;99.90;;;;;;5054121;28;20017;-91
2023/02/04 05:35:46;;;;;;;7.75;1.52;;;8.10;99.90;;;;;;5057910;28;20044;-90
2023/02/04 05:38:11;;;;;;;9.35;2.67;;;8.10;99.90;;;;;;5052924;28;20518;-91
2023/02/04 05:40:37;;;;;;;10.95;2.47;;;8.10;99.90;;;;;;5052530;28;20052;-91
2023/02/04 05:43:03;;;;;;;5.88;1.60;;;8.10;99.90;;;;;;5052203;28;20111;-92
2023/02/04 05:45:29;;;;;;;7.43;1.48;;;8.10;99.90;;;;;;5052273;28;20013;-91
2023/02/04 05:47:55;;;;;;;6.63;1.90;;;8.10;99.90;;;;;;5053141;28;20025;-91
2023/02/04 05:50:21;;;;;;;8.07;1.63;;;8.10;99.90;;;;;;5051725;28;20112;-91
2023/02/04 05:52:46;;;;;;;4.43;1.50;;;8.10;99.90;;;;;;5054213;28;20473;-90
2023/02/04 05:55:12;;;;;;;5.03;1.27;;;8.10;99.90;;;;;;5056916;28;20469;-89
2023/02/04 05:57:40;;;;;;;9.10;1.50;;;8.10;99.90;;;;;;5055797;28;20184;-91
2023/02/04 06:00:07;;;;;;;3.22;1.10;;;8.00;99.90;;;;;;5053352;28;20017;-91
2023/02/04 06:02:33;;;;;;;4.63;1.25;;;8.00;99.90;;;;;;5055906;28;20385;-91
2023/02/04 06:04:59;;;;;;;3.97;1.02;;;8.10;99.90;;;;;;5055959;28;20013;-90
2023/02/04 06:07:24;;;;;;;4.25;1.25;;;8.10;99.90;;;;;;5055707;28;20017;-91
2023/02/04 06:09:50;;;;;;;4.32;1.25;;;8.10;99.90;;;;;;5056866;28;20033;-91
2023/02/04 06:12:16;;;;;;;7.00;2.20;;;8.10;99.90;;;;;;5056038;28;20049;-91
2023/02/04 06:14:41;;;;;;;4.50;1.00;;;8.10;99.90;;;;;;5055643;28;20057;-91
2023/02/04 06:17:07;;;;;;;6.40;1.15;;;8.00;99.90;;;;;;5056550;28;20044;-90
2023/02/04 06:19:32;;;;;;;2.83;1.35;;;8.00;99.90;;;;;;5055535;28;20021;-91
2023/02/04 06:21:58;;;;;;;5.90;1.48;;;8.00;99.90;;;;;;5055556;28;20021;-91
2023/02/04 06:24:24;;;;;;;5.47;1.33;;;8.00;99.90;;;;;;5055565;28;20013;-91
2023/02/04 06:26:49;;;;;;;5.25;1.10;;;8.00;99.90;;;;;;5055615;28;20031;-91
2023/02/04 06:29:15;;;;;;;3.92;1.05;;;8.00;99.90;;;;;;5056562;28;20462;-91
2023/02/04 06:31:41;;;;;;;5.85;1.27;;;8.00;99.90;;;;;;5055204;28;20485;-90
2023/02/04 06:34:06;;;;;;;5.20;1.08;;;8.00;99.90;;;;;;5055734;28;20023;-90
2023/02/04 06:36:32;;;;;;;8.00;1.15;;;8.00;99.90;;;;;;5056141;28;20087;-91
2023/02/04 06:38:58;;;;;;;5.47;1.35;;;8.00;99.90;;;;;;5056379;28;20019;-91
2023/02/04 06:41:23;;;;;;;4.55;1.10;;;8.00;99.90;;;;;;5055512;28;20020;-90
2023/02/04 06:43:49;;;;;;;8.05;1.63;;;8.00;99.90;;;;;;5055293;28;20024;-91
2023/02/04 06:46:15;;;;;;;3.72;1.30;;;8.00;99.90;;;;;;5055178;28;20029;-91
2023/02/04 06:48:41;;;;;;;4.55;1.20;;;8.00;99.90;;;;;;5056398;28;20090;-91
2023/02/04 06:51:06;;;;;;;9.40;1.00;;;8.00;99.90;;;;;;5055083;28;20055;-91
2023/02/04 06:53:32;;;;;;;3.25;1.13;;;8.00;99.90;;;;;;5055001;28;20021;-90
2023/02/04 06:55:57;;;;;;;2.17;1.05;;;8.00;99.90;;;;;;5054840;28;20054;-91
2023/02/04 06:58:23;;;;;;;7.70;1.90;;;8.00;99.90;;;;;;5055185;28;20055;-90
2023/02/04 07:00:49;;;;;;;5.88;1.10;;;7.90;99.90;;;;;;5055086;28;20017;-92
2023/02/04 07:03:15;;;;;;;5.72;1.15;;;7.90;99.90;;;;;;5054103;28;20091;-92
2023/02/04 07:05:40;;;;;;;2.78;0.90;;;7.90;99.90;;;;;;5054134;28;20036;-92
2023/02/04 07:08:06;;;;;;;3.38;1.27;;;7.90;99.90;;;;;;5054479;28;20031;-92
2023/02/04 07:10:31;;;;;;;7.78;1.25;;;7.90;99.90;;;;;;5054472;28;20029;-92
2023/02/04 07:12:57;;;;;;;7.03;1.02;;;7.90;99.90;;;;;;5055765;28;20063;-92
2023/02/04 07:15:23;;;;;;;5.72;1.15;;;7.90;99.90;;;;;;5053180;28;20037;-92
2023/02/04 07:17:49;;;;;;;2.55;1.25;;;7.90;99.90;;;;;;5054727;28;20025;-90
2023/02/04 07:20:15;;;;;;;6.28;1.17;;;7.90;99.90;;;;;;5054779;28;20036;-91
2023/02/04 07:22:41;;;;;;;7.97;1.23;;;7.90;99.90;;;;;;5053004;28;20039;-92
2023/02/04 07:25:08;;;;;;;4.50;1.00;;;7.90;99.90;;;;;;5053377;28;20021;-90
2023/02/04 07:27:34;;;;;;;1.98;0.93;;;7.90;99.90;;;;;;5053489;28;20024;-91
2023/02/04 07:30:00;;;;;;;3.42;1.48;;;7.90;99.90;;;;;;5053395;28;20029;-92
2023/02/04 07:32:26;;;;;;;6.13;1.52;;;7.80;99.90;;;;;;5084514;28;20082;-92
2023/02/04 07:34:53;;;;;;;5.63;1.35;;;7.80;99.90;;;;;;5053491;28;20043;-92
2023/02/04 07:37:19;;;;;;;5.50;1.40;;;7.80;99.90;;;;;;5053318;28;20072;-91
2023/02/04 07:39:45;;;;;;;8.20;1.98;;;7.80;99.90;;;;;;5054037;28;20021;-92
2023/02/04 07:42:10;;;;;;;2.90;1.85;;;7.80;99.90;;;;;;5053885;28;20028;-91
2023/02/04 07:44:37;;;;;;;7.10;1.40;;;7.80;99.90;;;;;;5054920;28;20096;-92
2023/02/04 07:47:03;;;;;;;8.02;1.38;;;7.80;99.90;;;;;;5054923;28;20013;-92
2023/02/04 07:49:28;;;;;;;4.88;1.10;;;7.80;99.90;;;;;;5054128;28;20028;-91
2023/02/04 07:51:54;;;;;;;2.33;0.90;;;7.80;99.90;;;;;;5053744;28;20541;-92
2023/02/04 07:54:20;;;;;;;10.48;1.40;;;7.80;99.90;;;;;;5053712;28;20085;-92
2023/02/04 07:56:46;;;;;;;5.47;1.23;;;7.70;99.90;;;;;;5053896;28;20037;-92
2023/02/04 07:59:11;;;;;;;6.50;1.92;;;7.70;99.90;;;;;;5053524;28;20048;-92
2023/02/04 08:01:37;;;;;;;6.80;1.40;;;7.70;99.90;;;;;;5053654;28;20044;-92
2023/02/04 08:04:03;;;;;;;11.38;1.30;;;7.70;99.90;;;;;;5053650;28;20497;-92
2023/02/04 08:06:29;;;;;;;9.15;1.23;;;7.70;99.90;;;;;;5053530;28;20021;-91
2023/02/04 08:08:54;;;;;;;10.13;1.63;;;7.70;99.90;;;;;;5053771;28;20090;-92
2023/02/04 08:11:20;;;;;;;4.50;1.27;;;7.70;99.90;;;;;;5053629;28;20454;-92
2023/02/04 08:13:46;;;;;;;5.20;1.10;;;7.70;99.90;;;;;;5053407;28;20025;-92
2023/02/04 08:16:11;;;;;;;6.47;1.10;;;7.70;99.90;;;;;;5051368;28;20033;-92
2023/02/04 08:18:37;;;;;;;7.05;1.13;;;7.70;99.90;;;;;;5052722;28;20056;-91
2023/02/04 08:21:05;;;;;;;4.28;1.05;;;7.70;99.90;;;;;;5052896;28;20021;-91
2023/02/04 08:23:31;;;;;;;4.60;1.00;;;7.70;99.90;;;;;;5053526;28;20032;-88
2023/02/04 08:25:58;;;;;;;9.75;1.23;;;7.70;99.90;;;;;;5066627;28;20028;-93
2023/02/04 08:28:24;;;;;;;4.97;1.05;;;7.70;99.90;;;;;;5058560;28;20229;-92
2023/02/04 08:30:59;;;;;;;3.55;0.80;;;7.70;99.90;;;;;;5053680;28;20017;-92
2023/02/04 08:33:24;;;;;;;8.60;1.02;;;7.70;99.90;;;;;;5046559;28;20032;-92
2023/02/04 08:35:51;;;;;;;4.10;0.80;;;7.70;99.90;;;;;;5046100;28;20057;-92
2023/02/04 08:38:16;;;;;;;8.20;0.95;;;7.70;99.90;;;;;;5041305;28;20014;-91
2023/02/04 08:40:42;;;;;;;6.22;0.95;;;7.70;99.90;;;;;;5047129;28;20027;-90
2023/02/04 08:43:08;;;;;;;10.90;2.53;;;7.70;99.90;;;;;;5052373;28;20111;-92
2023/02/04 08:45:34;;;;;;;5.78;1.33;;;7.70;99.90;;;;;;5040359;28;20041;-90
2023/02/04 08:48:00;;;;;;;7.68;1.17;;;7.70;99.90;;;;;;5051681;28;20052;-91
2023/02/04 08:50:27;;;;;;;7.30;1.00;;;7.70;99.90;;;;;;5052149;28;20052;-92
2023/02/04 08:52:53;;;;;;;6.20;1.27;;;7.70;99.90;;;;;;5053107;28;20116;-92
2023/02/04 08:55:18;;;;;;;5.15;0.80;;;7.70;99.90;;;;;;5041831;28;20478;-93
2023/02/04 08:57:44;;;;;;;8.98;0.95;;;7.70;99.90;;;;;;5047731;28;20564;-91
2023/02/04 09:00:11;;;;;;;6.13;1.08;;;7.70;99.90;;;;;;5050730;28;20021;-91
2023/02/04 09:02:37;;;;;;;5.53;0.85;;;7.70;99.90;;;;;;5048725;28;20035;-91
2023/02/04 09:05:03;;;;;;;8.45;1.05;;;7.70;99.90;;;;;;5046539;28;20096;-92
2023/02/04 09:07:28;;;;;;;3.20;0.85;;;7.70;99.90;;;;;;5059132;28;20029;-91
2023/02/04 09:09:54;;;;;;;5.38;0.80;;;7.80;99.90;;;;;;5050805;28;20028;-90
2023/02/04 09:12:20;;;;;;;4.72;1.27;;;7.80;99.90;;;;;;5047308;28;20382;-92
2023/02/04 09:14:45;;;;;;;6.10;1.20;;;7.80;99.90;;;;;;5052023;28;20398;-91
2023/02/04 09:17:11;;;;;;;7.53;1.63;;;7.80;99.90;;;;;;5052746;28;20098;-92
2023/02/04 09:19:37;;;;;;;11.88;3.38;;;7.80;99.90;;;;;;5051471;28;20033;-93
2023/02/04 09:22:02;;;;;;;6.43;1.25;;;7.80;99.90;;;;;;5052470;28;20068;-92
2023/02/04 09:24:28;;;;;;;6.28;2.15;;;7.80;99.90;;;;;;5057786;28;20020;-90
2023/02/04 09:26:54;;;;;;;7.68;1.27;;;7.80;99.90;;;;;;5054636;28;20485;-92
2023/02/04 09:29:20;;;;;;;3.53;1.10;;;7.80;99.90;;;;;;5054322;28;20029;-93
2023/02/04 09:31:45;;;;;;;4.78;1.20;;;7.80;99.90;;;;;;5054768;28;20025;-91
2023/02/04 09:34:11;;;;;;;5.57;1.27;;;7.90;99.90;;;;;;5054248;28;20036;-91
2023/02/04 09:36:37;;;;;;;3.35;1.80;;;7.90;99.90;;;;;;5055275;28;20065;-92
2023/02/04 09:39:08;;;;;;;4.05;1.15;;;7.90;99.90;;;;;;5053609;28;20070;-91
2023/02/04 09:41:34;;;;;;;5.72;1.38;;;7.90;99.90;;;;;;5051858;28;20056;-92
2023/02/04 09:44:00;;;;;;;10.02;2.45;;;7.90;99.90;;;;;;5050753;28;20454;-91
2023/02/04 09:46:27;;;;;;;8.20;1.02;;;7.90;99.90;;;;;;5049908;28;20028;-92
2023/02/04 09:48:53;;;;;;;7.18;1.08;;;7.90;99.90;;;;;;5048940;28;20013;-92
2023/02/04 09:51:25;;;;;;;8.00;0.85;;;7.90;99.90;;;;;;5048935;28;20037;-92
2023/02/04 09:53:53;;;;;;;6.35;0.93;;;7.90;99.90;;;;;;5050030;28;20032;-91
2023/02/04 09:56:19;;;;;;;7.95;1.27;;;8.00;99.90;;;;;;5051520;28;20413;-91
2023/02/04 09:58:45;;;;;;;5.57;0.95;;;8.00;99.90;;;;;;5051965;28;20036;-91
2023/02/04 10:01:15;;;;;;;11.23;2.40;;;8.00;99.90;;;;;;5052941;28;20029;-92
2023/02/04 10:03:45;;;;;;;7.20;1.15;;;8.00;99.90;;;;;;5054059;28;20021;-92
2023/02/04 10:06:20;;;;;;;6.47;0.90;;;8.10;99.90;;;;;;5053623;28;20044;-91
2023/02/04 10:08:48;;;;;;;2.72;1.00;;;8.10;99.90;;;;;;5053817;28;20032;-92
2023/02/04 10:11:15;;;;;;;2.60;0.98;;;8.10;99.90;;;;;;5052625;28;20028;-91
2023/02/04 10:13:44;;;;;;;7.25;1.10;;;8.10;99.90;;;;;;5053561;28;20029;-92
2023/02/04 10:16:17;;;;;;;6.53;1.92;;;8.10;99.90;;;;;;5052360;28;20029;-92
2023/02/04 10:18:43;;;;;;;4.80;0.90;;;8.10;99.90;;;;;;5052325;28;20045;-92
2023/02/04 10:21:22;;;;;;;6.80;0.95;;;8.10;99.90;;;;;;5052263;28;20021;-92
2023/02/04 10:23:52;;;;;;;11.30;1.17;;;8.20;99.90;;;;;;5052346;28;20021;-92
2023/02/04 10:26:20;;;;;;;8.43;0.98;;;8.20;99.90;;;;;;5056331;28;20040;-93
2023/02/04 10:28:47;;;;;;;6.97;0.98;;;8.20;99.90;;;;;;5062435;28;20021;-91
2023/02/04 10:31:46;;;;;;;7.43;1.20;;;8.20;99.90;;;;;;5066376;28;20028;-90
2023/02/04 10:34:20;;;;;;;7.72;1.27;;;8.20;99.90;;;;;;5001068;28;20060;-91
2023/02/04 10:36:49;;;;;;;4.05;0.98;;;8.30;99.90;;;;;;5052096;28;20064;-90
2023/02/04 10:39:17;;;;;;;7.70;1.80;;;8.30;99.90;;;;;;5053570;28;20021;-91
2023/02/04 10:41:46;;;;;;;4.40;1.00;;;8.30;99.90;;;;;;5056968;28;20441;-91
2023/02/04 10:44:17;;;;;;;4.95;1.08;;;8.30;99.90;;;;;;5055702;28;20040;-90
2023/02/04 10:46:42;;;;;;;7.28;1.00;;;8.30;99.90;;;;;;5057131;28;20029;-91
2023/02/04 10:49:20;;;;;;;5.43;1.20;;;8.30;99.90;;;;;;5055739;28;20025;-92
2023/02/04 10:51:47;;;;;;;5.93;1.05;;;8.30;99.90;;;;;;5056578;28;20040;-90
2023/02/04 10:54:31;;;;;;;3.35;0.80;;;8.40;99.90;;;;;;5055705;28;20178;-91
2023/02/04 10:57:16;;;;;;;2.60;0.70;;;8.30;99.90;;;;;;5056008;28;20037;-90
2023/02/04 10:59:42;;;;;;;4.65;1.13;;;8.30;99.90;;;;;;5057448;28;20074;-91
2023/02/04 11:02:26;;;;;;;4.32;1.30;;;8.30;99.90;;;;;;5064970;28;20064;-89
2023/02/04 11:04:52;;;;;;;5.63;1.13;;;8.40;99.90;;;;;;5059775;28;20031;-90
2023/02/04 11:07:19;;;;;;;5.45;0.88;;;8.40;99.90;;;;;;5055635;28;20108;-91
2023/02/04 11:09:45;;;;;;;5.47;1.10;;;8.30;99.90;;;;;;5057533;28;20029;-91
2023/02/04 11:12:35;;;;;;;5.97;1.10;;;8.40;99.90;;;;;;5062260;28;20406;-90
2023/02/04 11:15:01;;;;;;;4.93;1.00;;;8.40;99.90;;;;;;5058107;28;20071;-92
2023/02/04 11:17:33;;;;;;;7.57;1.80;;;8.40;99.90;;;;;;5062349;28;20037;-91
2023/02/04 11:19:59;;;;;;;12.30;1.65;;;8.40;99.90;;;;;;5067780;28;20016;-93
2023/02/04 11:22:52;;;;;;;7.35;1.17;;;8.50;99.90;;;;;;5069505;28;20021;-93
2023/02/04 11:25:36;;;;;;;6.43;1.10;;;8.50;99.90;;;;;;5056645;28;20029;-92
2023/02/04 11:28:25;;;;;;;6.43;1.23;;;8.50;99.90;;;;;;5057091;28;20036;-90
2023/02/04 11:31:02;;;;;;;2.67;0.88;;;8.50;99.90;;;;;;5055750;28;20182;-90
2023/02/04 11:33:40;;;;;;;7.15;1.02;;;8.50;99.90;;;;;;5056659;28;20563;-93
2023/02/04 11:36:10;;;;;;;4.93;0.90;;;8.50;99.90;;;;;;5054439;28;20506;-92
2023/02/04 11:38:37;;;;;;;2.70;0.73;;;8.50;99.90;;;;;;5055321;28;20490;-92
2023/02/04 11:41:03;;;;;;;9.27;2.70;;;8.50;99.90;;;;;;5056143;28;20017;-92
2023/02/04 11:43:33;;;;;;;8.43;1.67;;;8.50;99.90;;;;;;5055750;28;20350;-91
2023/02/04 11:46:22;;;;;;;3.63;1.38;;;8.50;99.90;;;;;;5055763;28;20086;-89
2023/02/04 11:48:52;;;;;;;6.75;1.55;;;8.50;99.90;;;;;;5054708;28;20033;-91
2023/02/04 11:51:22;;;;;;;10.05;1.40;;;8.50;99.90;;;;;;5054619;28;20029;-90
2023/02/04 11:53:51;;;;;;;5.50;1.10;;;8.50;99.90;;;;;;5054696;28;20091;-91
2023/02/04 11:56:21;;;;;;;5.25;1.30;;;8.50;99.90;;;;;;5054984;28;20045;-92
2023/02/04 11:58:48;;;;;;;6.50;1.17;;;8.50;99.90;;;;;;5055895;28;20021;-91
2023/02/04 12:01:29;;;;;;;3.90;1.20;;;8.50;99.90;;;;;;5055582;28;20017;-92
2023/02/04 12:04:00;;;;;;;4.53;1.10;;;8.50;99.90;;;;;;5054518;28;20441;-92
2023/02/04 12:06:29;;;;;;;14.15;2.05;;;8.50;99.90;;;;;;5055156;28;20033;-91
2023/02/04 12:09:16;;;;;;;2.80;0.77;;;8.40;99.90;;;;;;5056666;28;20027;-92
2023/02/04 12:11:59;;;;;;;5.45;1.60;;;8.40;99.90;;;;;;5071911;28;20032;-93
2023/02/04 12:14:35;;;;;;;9.35;1.88;;;8.40;99.90;;;;;;5070585;28;20029;-92
2023/02/04 12:17:16;;;;;;;6.57;1.45;;;8.40;99.90;;;;;;5070198;28;20036;-90
2023/02/04 12:19:42;;;;;;;6.53;1.40;;;8.40;99.90;;;;;;5072074;28;20029;-92
2023/02/04 12:22:10;;;;;;;6.47;1.60;;;8.40;99.90;;;;;;5071099;28;20032;-92
2023/02/04 12:24:36;;;;;;;8.45;1.55;;;8.40;99.90;;;;;;5092870;28;20482;-92
2023/02/04 12:27:01;;;;;;;6.35;1.30;;;8.50;99.90;;;;;;5059959;28;20032;-92
2023/02/04 12:29:27;;;;;;;7.68;2.00;;;8.50;99.90;;;;;;5062795;28;20116;-91
2023/02/04 12:31:52;;;;;;;6.20;1.38;;;8.50;99.90;;;;;;5062351;28;20375;-91
2023/02/04 12:34:18;;;;;;;10.30;1.85;;;8.50;99.90;;;;;;5062587;28;20036;-91
2023/02/04 12:36:44;;;;;;;6.38;1.83;;;8.50;99.90;;;;;;5060816;28;20088;-92
2023/02/04 12:39:09;;;;;;;9.48;1.42;;;8.50;99.90;;;;;;5058968;28;20039;-92
2023/02/04 12:41:36;;;;;;;5.57;1.30;;;8.50;99.90;;;;;;5058400;28;20082;-92
2023/02/04 12:44:02;;;;;;;6.63;1.35;;;8.50;99.90;;;;;;5058619;28;20028;-93
2023/02/04 12:46:30;;;;;;;8.25;1.50;;;8.50;99.90;;;;;;5058110;28;20032;-93
2023/02/04 12:48:56;;;;;;;6.32;1.30;;;8.50;99.90;;;;;;5055743;28;20505;-92
2023/02/04 12:51:22;;;;;;;7.25;3.03;;;8.50;99.90;;;;;;5057552;28;20021;-91
2023/02/04 12:53:48;;;;;;;6.55;0.90;;;8.50;99.90;;;;;;5055411;28;20553;-92
2023/02/04 12:56:19;;;;;;;2.15;0.90;;;8.40;99.90;;;;;;5056052;28;20115;-92